createdAt,value
2019-05-25T00:01:20.372Z,2.23
2019-05-25T00:03:49.039Z,4.03
2019-05-25T00:06:17.778Z,1.30
2019-05-25T00:08:46.422Z,1.37
2019-05-25T00:11:15.107Z,4.03
2019-05-25T00:13:43.825Z,2.20
2019-05-25T00:16:12.504Z,1.30
2019-05-25T00:18:41.167Z,2.67
2019-05-25T00:21:13.209Z,1.10
2019-05-25T00:23:40.222Z,1.47
2019-05-25T00:26:08.879Z,1.40
2019-05-25T00:28:37.524Z,1.70
2019-05-25T00:31:06.319Z,2.63
2019-05-25T00:33:35.030Z,1.10
2019-05-25T00:36:03.807Z,3.50
2019-05-25T00:38:32.830Z,2.47
2019-05-25T00:41:01.474Z,1.60
2019-05-25T00:43:30.134Z,3.50
2019-05-25T00:45:58.802Z,1.30
2019-05-25T00:48:27.459Z,1.00
2019-05-25T00:50:56.143Z,2.03
2019-05-25T00:53:24.881Z,1.40
2019-05-25T00:55:53.515Z,1.73
2019-05-25T00:58:22.181Z,1.30
2019-05-25T01:00:50.900Z,1.67
2019-05-25T01:03:19.671Z,1.30
2019-05-25T01:05:48.354Z,1.33
2019-05-25T01:08:17.019Z,2.00
2019-05-25T01:10:45.683Z,1.93
2019-05-25T01:13:14.324Z,1.20
2019-05-25T01:15:42.984Z,1.50
2019-05-25T01:18:11.722Z,1.47
2019-05-25T01:20:40.386Z,2.57
2019-05-25T01:23:09.043Z,1.47
2019-05-25T01:25:37.699Z,2.40
2019-05-25T01:28:06.363Z,1.47
2019-05-25T01:30:35.033Z,1.37
2019-05-25T01:33:03.779Z,1.83
2019-05-25T01:35:32.506Z,1.13
2019-05-25T01:38:01.177Z,2.10
2019-05-25T01:40:29.804Z,1.20
2019-05-25T01:42:58.771Z,2.23
2019-05-25T01:45:27.442Z,1.90
2019-05-25T01:47:56.117Z,1.30
2019-05-25T01:50:24.766Z,1.43
2019-05-25T01:52:53.403Z,2.80
2019-05-25T01:55:22.097Z,1.30
2019-05-25T01:57:50.726Z,1.30
2019-05-25T02:00:19.418Z,1.30
2019-05-25T02:02:48.112Z,2.37
2019-05-25T02:05:16.925Z,1.60
2019-05-25T02:07:45.590Z,1.30
2019-05-25T02:10:14.244Z,1.93
2019-05-25T02:12:42.899Z,1.30
2019-05-25T02:15:11.560Z,1.87
2019-05-25T02:17:40.245Z,1.53
2019-05-25T02:20:08.891Z,1.30
2019-05-25T02:22:37.571Z,1.20
2019-05-25T02:25:17.077Z,2.70
2019-05-25T02:27:36.934Z,1.30
2019-05-25T02:30:06.277Z,1.13
2019-05-25T02:32:34.920Z,1.57
2019-05-25T02:35:03.607Z,1.20
2019-05-25T02:37:32.296Z,1.50
2019-05-25T02:40:00.927Z,1.07
2019-05-25T02:42:29.607Z,1.17
2019-05-25T02:44:58.281Z,1.33
2019-05-25T02:47:26.999Z,1.63
2019-05-25T02:49:56.047Z,0.90
2019-05-25T02:52:24.684Z,1.30
2019-05-25T02:54:53.320Z,1.20
2019-05-25T02:57:21.975Z,1.63
2019-05-25T02:59:50.615Z,1.37
2019-05-25T03:02:19.284Z,1.30
2019-05-25T03:04:47.937Z,1.43
2019-05-25T03:07:16.632Z,1.93
2019-05-25T03:09:45.287Z,1.00
2019-05-25T03:12:13.948Z,1.23
2019-05-25T03:14:42.615Z,1.10
2019-05-25T03:17:11.286Z,2.50
2019-05-25T03:19:39.929Z,1.40
2019-05-25T03:22:08.583Z,2.80
2019-05-25T03:24:37.931Z,1.40
2019-05-25T03:27:06.609Z,1.57
2019-05-25T03:29:35.283Z,1.37
2019-05-25T03:32:03.917Z,1.13
2019-05-25T03:34:32.584Z,1.20
2019-05-25T03:37:01.265Z,1.77
2019-05-25T03:39:29.925Z,1.40
2019-05-25T03:41:58.554Z,1.40
2019-05-25T03:44:27.228Z,1.40
2019-05-25T03:46:55.876Z,1.50
2019-05-25T03:49:24.546Z,1.50
2019-05-25T03:51:53.209Z,1.50
2019-05-25T03:54:24.258Z,1.37
2019-05-25T03:56:53.598Z,1.50
2019-05-25T03:59:22.247Z,1.63
2019-05-25T04:01:50.981Z,2.60
2019-05-25T04:04:19.709Z,1.50
2019-05-25T04:06:48.351Z,1.30
2019-05-25T04:09:17.008Z,1.20
2019-05-25T04:11:45.662Z,2.37
2019-05-25T04:14:14.297Z,1.43
2019-05-25T04:16:42.971Z,1.70
2019-05-25T04:19:12.267Z,2.50
2019-05-25T04:21:40.904Z,1.53
2019-05-25T04:24:11.669Z,1.97
2019-05-25T04:26:40.324Z,1.57
2019-05-25T04:29:08.996Z,1.50
2019-05-25T04:31:37.636Z,2.10
2019-05-25T04:34:06.293Z,1.67
2019-05-25T04:36:34.954Z,2.23
2019-05-25T04:39:04.692Z,1.53
2019-05-25T04:41:33.427Z,1.50
2019-05-25T04:44:02.114Z,1.50
2019-05-25T04:46:30.751Z,1.30
2019-05-25T04:48:59.453Z,1.70
2019-05-25T04:51:28.125Z,1.20
2019-05-25T04:53:56.763Z,1.33
2019-05-25T04:56:38.880Z,1.70
2019-05-25T04:58:56.483Z,2.40
2019-05-25T05:01:25.170Z,1.57
2019-05-25T05:03:53.840Z,2.50
2019-05-25T05:06:22.581Z,2.57
2019-05-25T05:08:51.307Z,1.53
2019-05-25T05:11:20.461Z,1.50
2019-05-25T05:13:49.108Z,1.60
2019-05-25T05:16:17.777Z,1.50
2019-05-25T05:18:46.465Z,2.30
2019-05-25T05:21:15.112Z,2.37
2019-05-25T05:23:43.747Z,2.00
2019-05-25T05:26:12.443Z,2.10
2019-05-25T05:28:41.099Z,2.30
2019-05-25T05:31:22.815Z,2.47
2019-05-25T05:33:40.216Z,2.27
2019-05-25T05:36:08.931Z,1.77
2019-05-25T05:38:37.563Z,1.60
2019-05-25T05:41:06.219Z,2.93
2019-05-25T05:43:34.898Z,1.70
2019-05-25T05:46:03.544Z,6.90
2019-05-25T05:48:32.275Z,4.63
2019-05-25T05:51:00.920Z,2.77
2019-05-25T05:53:29.583Z,2.00
2019-05-25T05:55:58.236Z,3.53
2019-05-25T05:58:26.875Z,5.10
2019-05-25T06:00:55.517Z,1.43
2019-05-25T06:03:24.197Z,1.50
2019-05-25T06:05:52.848Z,3.03
2019-05-25T06:08:21.504Z,2.17
2019-05-25T06:10:50.140Z,2.30
2019-05-25T06:13:18.791Z,2.77
2019-05-25T06:15:48.117Z,3.40
2019-05-25T06:18:16.757Z,2.37
2019-05-25T06:20:45.655Z,4.60
2019-05-25T06:23:14.331Z,1.23
2019-05-25T06:25:42.988Z,1.57
2019-05-25T06:28:11.699Z,3.23
2019-05-25T06:30:40.653Z,1.40
2019-05-25T06:33:09.346Z,3.03
2019-05-25T06:35:38.027Z,2.67
2019-05-25T06:38:06.692Z,1.70
2019-05-25T06:40:35.347Z,1.60
2019-05-25T06:43:04.088Z,2.53
2019-05-25T06:45:32.729Z,1.77
2019-05-25T06:48:01.427Z,1.53
2019-05-25T06:50:30.130Z,2.57
2019-05-25T06:52:58.819Z,1.40
2019-05-25T06:55:27.450Z,2.80
2019-05-25T06:57:56.111Z,1.80
2019-05-25T07:00:24.967Z,2.47
2019-05-25T07:02:53.896Z,1.53
2019-05-25T07:05:22.534Z,1.50
2019-05-25T07:07:54.398Z,1.37
2019-05-25T07:10:21.808Z,1.60
2019-05-25T07:12:50.489Z,1.47
2019-05-25T07:15:19.956Z,1.57
2019-05-25T07:17:48.626Z,1.67
2019-05-25T07:20:17.292Z,1.97
2019-05-25T07:22:46.022Z,2.23
2019-05-25T07:25:14.740Z,2.40
2019-05-25T07:27:58.129Z,1.53
2019-05-25T07:30:13.776Z,3.50
2019-05-25T07:32:42.416Z,1.70
2019-05-25T07:35:11.792Z,1.60
2019-05-25T07:37:40.427Z,2.63
2019-05-25T07:40:09.167Z,3.63
2019-05-25T07:42:37.906Z,3.77
2019-05-25T07:45:06.619Z,4.83
2019-05-25T07:47:35.383Z,2.17
2019-05-25T07:50:04.736Z,3.63
2019-05-25T07:52:33.440Z,1.67
2019-05-25T07:55:02.092Z,4.17
2019-05-25T07:57:30.746Z,3.43
2019-05-25T07:59:59.465Z,3.23
2019-05-25T08:02:28.195Z,4.90
2019-05-25T08:04:56.874Z,5.03
2019-05-25T08:07:25.523Z,9.03
2019-05-25T08:09:54.167Z,9.30
2019-05-25T08:12:22.849Z,5.47
2019-05-25T08:14:51.505Z,4.60
2019-05-25T08:17:20.140Z,7.17
2019-05-25T08:19:48.794Z,9.10
2019-05-25T08:22:17.455Z,5.73
2019-05-25T08:24:46.118Z,5.73
2019-05-25T08:27:14.987Z,5.93
2019-05-25T08:29:43.665Z,4.87
2019-05-25T08:32:12.826Z,4.23
2019-05-25T08:34:41.475Z,4.37
2019-05-25T08:37:10.212Z,7.63
2019-05-25T08:39:38.838Z,3.03
2019-05-25T08:42:07.524Z,5.23
2019-05-25T08:44:36.187Z,7.30
2019-05-25T08:47:04.841Z,4.77
2019-05-25T08:49:33.516Z,5.00
2019-05-25T08:52:04.172Z,3.07
2019-05-25T08:54:32.581Z,5.43
2019-05-25T08:57:01.259Z,3.50
2019-05-25T08:59:29.917Z,3.37
2019-05-25T09:01:58.616Z,6.17
2019-05-25T09:04:27.283Z,4.03
2019-05-25T09:06:55.967Z,4.63
2019-05-25T09:09:24.651Z,5.40
2019-05-25T09:11:53.341Z,2.77
2019-05-25T09:14:22.004Z,4.53
2019-05-25T09:16:50.959Z,5.20
2019-05-25T09:19:20.414Z,3.50
2019-05-25T09:22:02.007Z,3.30
2019-05-25T09:24:20.106Z,5.63
2019-05-25T09:26:48.771Z,2.67
2019-05-25T09:29:17.404Z,3.83
2019-05-25T09:31:46.053Z,3.57
2019-05-25T09:34:14.715Z,3.20
2019-05-25T09:36:43.384Z,3.50
2019-05-25T09:39:12.039Z,2.47
2019-05-25T09:41:40.706Z,5.03
2019-05-25T09:44:09.375Z,2.27
2019-05-25T09:46:38.057Z,4.60
2019-05-25T09:49:06.796Z,8.07
2019-05-25T09:51:35.458Z,23.00
2019-05-25T09:54:04.148Z,27.73
2019-05-25T09:56:32.808Z,32.43
2019-05-25T09:59:01.436Z,27.07
2019-05-25T10:01:30.093Z,19.70
2019-05-25T10:03:58.802Z,22.13
2019-05-25T10:06:27.474Z,24.87
2019-05-25T10:08:56.115Z,27.00
2019-05-25T10:11:24.795Z,25.37
2019-05-25T10:13:53.441Z,20.37
2019-05-25T10:16:22.100Z,25.00
2019-05-25T10:18:50.806Z,34.00
2019-05-25T10:21:19.469Z,17.57
2019-05-25T10:23:48.143Z,18.07
2019-05-25T10:26:16.807Z,16.20
2019-05-25T10:28:45.453Z,15.17
2019-05-25T10:31:14.093Z,21.30
2019-05-25T10:33:42.787Z,16.07
2019-05-25T10:36:11.542Z,19.23
2019-05-25T10:38:40.278Z,13.50
2019-05-25T10:41:08.918Z,13.23
2019-05-25T10:43:37.558Z,10.33
2019-05-25T10:46:06.239Z,21.00
2019-05-25T10:48:35.567Z,13.00
2019-05-25T10:51:04.249Z,10.80
2019-05-25T10:53:32.902Z,11.67
2019-05-25T10:56:01.551Z,11.57
2019-05-25T10:58:30.457Z,10.17
2019-05-25T11:00:59.097Z,9.77
2019-05-25T11:03:27.843Z,8.97
2019-05-25T11:05:56.735Z,13.90
2019-05-25T11:08:25.391Z,8.33
2019-05-25T11:10:54.051Z,10.20
2019-05-25T11:13:22.684Z,7.83
2019-05-25T11:15:51.350Z,9.57
2019-05-25T11:18:20.006Z,9.07
2019-05-25T11:20:48.665Z,8.03
2019-05-25T11:23:17.311Z,8.73
2019-05-25T11:25:45.954Z,8.30
2019-05-25T11:28:14.592Z,5.77
2019-05-25T11:30:43.339Z,6.13
2019-05-25T11:33:12.009Z,6.03
2019-05-25T11:35:40.692Z,5.70
2019-05-25T11:38:09.379Z,8.43
2019-05-25T11:40:38.104Z,4.67
2019-05-25T11:43:06.758Z,5.40
2019-05-25T11:45:35.414Z,5.90
2019-05-25T11:48:04.086Z,7.27
2019-05-25T11:50:32.754Z,5.77
2019-05-25T11:53:05.540Z,9.50
2019-05-25T11:55:31.882Z,5.30
2019-05-25T11:58:00.544Z,5.77
2019-05-25T12:00:29.414Z,4.47
2019-05-25T12:02:58.096Z,5.40
2019-05-25T12:05:26.758Z,3.43
2019-05-25T12:07:55.405Z,4.97
2019-05-25T12:10:24.370Z,3.93
2019-05-25T12:12:53.012Z,5.43
2019-05-25T12:15:21.676Z,4.20
2019-05-25T12:17:50.500Z,8.33
2019-05-25T12:20:19.177Z,4.63
2019-05-25T12:22:48.133Z,4.77
2019-05-25T12:25:16.787Z,3.90
2019-05-25T12:27:48.851Z,3.83
2019-05-25T12:30:15.810Z,4.77
2019-05-25T12:32:44.442Z,2.60
2019-05-25T12:35:13.119Z,2.90
2019-05-25T12:37:41.803Z,5.07
2019-05-25T12:40:10.503Z,5.00
2019-05-25T12:42:39.479Z,4.57
2019-05-25T12:45:08.153Z,5.23
2019-05-25T12:47:36.803Z,4.27
2019-05-25T12:50:05.768Z,2.63
2019-05-25T12:52:34.436Z,3.07
2019-05-25T12:55:03.107Z,3.60
2019-05-25T12:57:31.764Z,2.83
2019-05-25T13:00:14.311Z,2.97
2019-05-25T13:02:30.847Z,4.63
2019-05-25T13:04:59.533Z,3.73
2019-05-25T13:07:28.264Z,3.67
2019-05-25T13:09:56.927Z,2.70
2019-05-25T13:12:25.572Z,3.47
2019-05-25T13:14:54.228Z,2.70
2019-05-25T13:17:22.880Z,2.93
2019-05-25T13:19:51.579Z,2.57
2019-05-25T13:22:20.246Z,4.23
2019-05-25T13:24:48.922Z,4.43
2019-05-25T13:27:17.646Z,3.30
2019-05-25T13:29:46.369Z,4.60
2019-05-25T13:32:15.244Z,3.60
2019-05-25T13:34:44.907Z,2.73
2019-05-25T13:37:13.547Z,2.73
2019-05-25T13:39:42.216Z,2.70
2019-05-25T13:42:10.866Z,2.30
2019-05-25T13:44:39.500Z,4.97
2019-05-25T13:47:08.171Z,2.73
2019-05-25T13:49:36.827Z,3.30
2019-05-25T13:52:05.542Z,2.40
2019-05-25T13:54:34.748Z,5.53
2019-05-25T13:57:03.428Z,2.83
2019-05-25T13:59:32.092Z,2.83
2019-05-25T14:02:00.739Z,2.03
2019-05-25T14:04:29.409Z,2.30
2019-05-25T14:06:58.050Z,4.23
2019-05-25T14:09:27.246Z,3.50
2019-05-25T14:11:55.891Z,3.10
2019-05-25T14:14:24.781Z,2.77
2019-05-25T14:16:54.008Z,2.23
2019-05-25T14:19:22.650Z,2.40
2019-05-25T14:21:51.401Z,3.67
2019-05-25T14:24:20.502Z,2.20
2019-05-25T14:26:49.224Z,2.77
2019-05-25T14:29:17.898Z,1.87
2019-05-25T14:31:46.564Z,3.37
2019-05-25T14:34:15.297Z,2.57
2019-05-25T14:36:43.954Z,2.43
2019-05-25T14:39:12.626Z,1.93
2019-05-25T14:41:41.278Z,2.40
2019-05-25T14:44:09.925Z,3.07
2019-05-25T14:46:39.286Z,2.30
2019-05-25T14:49:07.952Z,2.50
2019-05-25T14:51:36.617Z,2.60
2019-05-25T14:54:05.289Z,2.40
2019-05-25T14:56:34.117Z,2.90
2019-05-25T14:59:02.963Z,2.33
2019-05-25T15:01:31.693Z,1.80
2019-05-25T15:04:00.339Z,2.43
2019-05-25T15:06:29.015Z,2.77
2019-05-25T15:08:57.667Z,3.20
2019-05-25T15:11:26.333Z,1.97
2019-05-25T15:13:55.063Z,2.53
2019-05-25T15:16:23.733Z,2.53
2019-05-25T15:18:52.385Z,2.50
2019-05-25T15:21:21.077Z,1.80
2019-05-25T15:23:49.815Z,1.80
2019-05-25T15:26:18.470Z,1.90
2019-05-25T15:28:47.140Z,2.33
2019-05-25T15:31:15.783Z,2.10
2019-05-25T15:33:44.429Z,2.10
2019-05-25T15:36:13.146Z,2.00
2019-05-25T15:38:41.946Z,2.10
2019-05-25T15:41:10.675Z,3.10
2019-05-25T15:43:39.383Z,4.20
2019-05-25T15:46:08.048Z,1.80
2019-05-25T15:48:36.703Z,1.70
2019-05-25T15:51:05.393Z,2.30
2019-05-25T15:53:34.073Z,2.63
2019-05-25T15:56:02.972Z,2.20
2019-05-25T15:58:31.766Z,2.30
2019-05-25T16:01:00.403Z,1.90
2019-05-25T16:03:29.074Z,2.70
2019-05-25T16:05:57.711Z,2.17
2019-05-25T16:08:26.370Z,1.77
2019-05-25T16:10:55.020Z,1.70
2019-05-25T16:13:23.654Z,1.67
2019-05-25T16:15:52.367Z,1.70
2019-05-25T16:18:21.024Z,2.37
2019-05-25T16:20:49.703Z,1.60
2019-05-25T16:23:18.352Z,1.73
2019-05-25T16:25:47.024Z,1.90
2019-05-25T16:28:15.656Z,3.83
2019-05-25T16:30:44.312Z,1.97
2019-05-25T16:33:14.570Z,2.40
2019-05-25T16:35:43.477Z,1.93
2019-05-25T16:38:12.262Z,2.17
2019-05-25T16:40:41.077Z,1.73
2019-05-25T16:43:09.712Z,2.20
2019-05-25T16:45:38.627Z,1.57
2019-05-25T16:48:07.332Z,1.63
2019-05-25T16:50:35.976Z,1.87
2019-05-25T16:53:04.636Z,2.10
2019-05-25T16:55:33.347Z,1.70
2019-05-25T16:58:02.043Z,1.80
2019-05-25T17:00:30.769Z,1.90
2019-05-25T17:02:59.606Z,2.07
2019-05-25T17:05:28.445Z,1.80
2019-05-25T17:07:57.524Z,2.13
2019-05-25T17:10:26.218Z,1.40
2019-05-25T17:12:54.891Z,1.87
2019-05-25T17:15:23.584Z,1.83
2019-05-25T17:17:52.293Z,2.03
2019-05-25T17:20:21.087Z,2.03
2019-05-25T17:22:49.763Z,1.50
2019-05-25T17:25:18.808Z,1.40
2019-05-25T17:27:47.513Z,2.00
2019-05-25T17:30:16.154Z,1.73
2019-05-25T17:32:44.808Z,1.80
2019-05-25T17:35:13.461Z,1.87
2019-05-25T17:37:42.108Z,1.67
2019-05-25T17:40:10.819Z,1.73
2019-05-25T17:42:39.501Z,1.60
2019-05-25T17:45:08.753Z,1.80
2019-05-25T17:47:37.566Z,1.77
2019-05-25T17:50:06.635Z,2.00
2019-05-25T17:52:35.282Z,2.83
2019-05-25T17:55:04.789Z,1.60
2019-05-25T17:57:33.449Z,1.60
2019-05-25T18:00:02.121Z,2.53
2019-05-25T18:02:30.763Z,1.40
2019-05-25T18:04:59.406Z,1.50
2019-05-25T18:07:28.147Z,1.50
2019-05-25T18:09:56.817Z,1.80
2019-05-25T18:12:25.508Z,1.40
2019-05-25T18:14:54.202Z,1.30
2019-05-25T18:17:22.833Z,1.80
2019-05-25T18:19:51.563Z,1.80
2019-05-25T18:22:20.213Z,5.03
2019-05-25T18:24:58.024Z,2.10
2019-05-25T18:27:26.692Z,1.73
2019-05-25T18:29:55.385Z,1.70
2019-05-25T18:32:24.752Z,1.60
2019-05-25T18:34:53.420Z,1.53
2019-05-25T18:37:22.109Z,1.70
2019-05-25T18:39:50.764Z,1.70
2019-05-25T18:42:19.447Z,3.37
2019-05-25T18:44:48.980Z,3.77
2019-05-25T18:47:17.668Z,1.63
2019-05-25T18:49:46.364Z,1.53
2019-05-25T18:52:15.022Z,1.70
2019-05-25T18:54:43.666Z,1.47
2019-05-25T18:57:12.432Z,1.50
2019-05-25T18:59:41.077Z,5.37
2019-05-25T19:02:09.722Z,2.30
2019-05-25T19:04:47.492Z,3.47
2019-05-25T19:07:09.043Z,1.60
2019-05-25T19:09:37.704Z,1.60
2019-05-25T19:12:06.374Z,3.00
2019-05-25T19:14:35.023Z,1.43
2019-05-25T19:17:03.710Z,1.83
2019-05-25T19:19:32.343Z,2.70
2019-05-25T19:22:00.994Z,3.47
2019-05-25T19:24:29.675Z,3.37
2019-05-25T19:26:58.323Z,3.40
2019-05-25T19:29:27.013Z,1.90
2019-05-25T19:31:55.673Z,1.90
2019-05-25T19:34:24.307Z,1.97
2019-05-25T19:36:52.980Z,1.87
2019-05-25T19:39:21.636Z,3.10
2019-05-25T19:41:50.388Z,2.57
2019-05-25T19:44:19.460Z,1.73
2019-05-25T19:46:48.145Z,3.70
2019-05-25T19:49:16.811Z,2.00
2019-05-25T19:51:45.464Z,3.10
2019-05-25T19:54:14.113Z,2.60
2019-05-25T19:56:42.866Z,2.00
2019-05-25T19:59:11.520Z,1.97
2019-05-25T20:01:40.200Z,1.80
2019-05-25T20:04:08.854Z,2.90
2019-05-25T20:06:37.504Z,4.83
2019-05-25T20:09:06.879Z,2.83
2019-05-25T20:11:35.630Z,2.20
2019-05-25T20:14:04.291Z,4.53
2019-05-25T20:16:32.972Z,3.10
2019-05-25T20:19:01.713Z,3.87
2019-05-25T20:21:30.376Z,2.83
2019-05-25T20:23:59.021Z,2.27
2019-05-25T20:26:27.695Z,2.50
2019-05-25T20:28:56.416Z,1.60
2019-05-25T20:31:25.108Z,2.00
2019-05-25T20:33:53.946Z,2.33
2019-05-25T20:36:22.596Z,2.63
2019-05-25T20:38:51.281Z,2.77
2019-05-25T20:41:19.930Z,2.80
2019-05-25T20:43:48.564Z,1.93
2019-05-25T20:46:17.243Z,1.70
2019-05-25T20:48:45.913Z,1.70
2019-05-25T20:51:14.589Z,3.33
2019-05-25T20:53:43.256Z,4.27
2019-05-25T20:56:11.905Z,1.73
2019-05-25T20:58:40.777Z,2.00
2019-05-25T21:01:09.424Z,4.70
2019-05-25T21:03:38.061Z,3.13
2019-05-25T21:06:06.736Z,2.07
2019-05-25T21:08:35.438Z,2.03
2019-05-25T21:11:04.890Z,1.87
2019-05-25T21:13:33.558Z,2.03
2019-05-25T21:16:02.224Z,4.13
2019-05-25T21:18:30.900Z,1.53
2019-05-25T21:21:00.236Z,2.10
2019-05-25T21:23:28.920Z,1.87
2019-05-25T21:25:57.624Z,1.80
2019-05-25T21:28:26.274Z,1.63
2019-05-25T21:30:54.920Z,1.63
2019-05-25T21:33:23.646Z,4.20
2019-05-25T21:36:06.813Z,2.00
2019-05-25T21:38:22.677Z,1.80
2019-05-25T21:40:51.334Z,1.80
2019-05-25T21:43:37.883Z,2.00
2019-05-25T21:46:06.628Z,1.70
2019-05-25T21:48:35.307Z,1.70
2019-05-25T21:51:03.987Z,2.40
2019-05-25T21:53:32.635Z,1.97
2019-05-25T21:56:01.324Z,2.07
2019-05-25T21:58:30.028Z,2.10
2019-05-25T22:00:59.283Z,2.13
2019-05-25T22:03:27.932Z,1.93
2019-05-25T22:05:56.599Z,2.73
2019-05-25T22:08:25.258Z,1.80
2019-05-25T22:10:53.896Z,1.67
2019-05-25T22:13:28.457Z,1.63
2019-05-25T22:15:52.951Z,1.90
2019-05-25T22:18:21.620Z,1.93
2019-05-25T22:20:50.289Z,1.87
2019-05-25T22:23:18.923Z,1.73
2019-05-25T22:25:47.559Z,1.80
2019-05-25T22:28:16.278Z,2.63
2019-05-25T22:30:44.982Z,2.10
2019-05-25T22:33:13.683Z,1.90
2019-05-25T22:35:42.994Z,2.10
2019-05-25T22:38:11.646Z,2.47
2019-05-25T22:40:40.497Z,1.90
2019-05-25T22:43:09.122Z,1.73
2019-05-25T22:45:38.440Z,2.07
2019-05-25T22:48:07.115Z,2.33
2019-05-25T22:50:35.756Z,1.70
2019-05-25T22:53:04.401Z,1.80
2019-05-25T22:55:33.051Z,1.60
2019-05-25T22:58:01.682Z,2.13
2019-05-25T23:00:30.336Z,1.90
2019-05-25T23:02:59.106Z,1.80
2019-05-25T23:05:27.755Z,1.77
2019-05-25T23:07:56.419Z,1.90
2019-05-25T23:10:25.117Z,1.90
2019-05-25T23:12:53.793Z,1.80
2019-05-25T23:15:22.449Z,3.83
2019-05-25T23:17:51.115Z,2.00
2019-05-25T23:20:19.955Z,1.90
2019-05-25T23:22:48.595Z,1.80
2019-05-25T23:25:17.279Z,2.00
2019-05-25T23:27:45.915Z,2.10
2019-05-25T23:30:14.571Z,1.70
2019-05-25T23:32:43.313Z,2.03
2019-05-25T23:35:11.987Z,2.00
2019-05-25T23:37:40.635Z,2.00
2019-05-25T23:40:09.312Z,2.00
2019-05-25T23:42:37.963Z,2.60
2019-05-25T23:45:08.285Z,1.90
2019-05-25T23:47:36.942Z,2.37
2019-05-25T23:50:05.655Z,1.90
2019-05-25T23:52:34.342Z,2.60
2019-05-25T23:55:05.188Z,2.03
2019-05-25T23:57:33.554Z,1.97
